sensor_id;sensor_type;location;lat;lon;timestamp;temperature;humidity
5842;DHT22;2947;52.276;9.946;2023-04-24T00:02:14;12.30;99.90
5842;DHT22;2947;52.276;9.946;2023-04-24T00:04:41;12.20;99.90
5842;DHT22;2947;52.276;9.946;2023-04-24T00:07:10;12.10;99.90
5842;DHT22;2947;52.276;9.946;2023-04-24T00:09:36;12.00;1.00
5842;DHT22;2947;52.276;9.946;2023-04-24T00:12:02;11.90;1.00
5842;DHT22;2947;52.276;9.946;2023-04-24T00:14:33;11.90;1.00
5842;DHT22;2947;52.276;9.946;2023-04-24T00:17:00;11.80;1.00
5842;DHT22;2947;52.276;9.946;2023-04-24T00:19:28;11.70;1.00
5842;DHT22;2947;52.276;9.946;2023-04-24T00:21:54;11.70;1.00
5842;DHT22;2947;52.276;9.946;2023-04-24T00:24:20;11.60;1.00
5842;DHT22;2947;52.276;9.946;2023-04-24T00:26:46;11.60;1.00
5842;DHT22;2947;52.276;9.946;2023-04-24T00:29:12;11.60;1.00
5842;DHT22;2947;52.276;9.946;2023-04-24T00:31:38;11.60;1.00
5842;DHT22;2947;52.276;9.946;2023-04-24T00:34:04;11.60;1.00
5842;DHT22;2947;52.276;9.946;2023-04-24T00:36:30;11.60;1.00
5842;DHT22;2947;52.276;9.946;2023-04-24T00:38:56;11.70;1.00
5842;DHT22;2947;52.276;9.946;2023-04-24T00:41:23;11.70;1.00
5842;DHT22;2947;52.276;9.946;2023-04-24T00:43:51;11.60;1.00
5842;DHT22;2947;52.276;9.946;2023-04-24T00:46:17;11.70;1.00
5842;DHT22;2947;52.276;9.946;2023-04-24T00:48:43;11.60;1.00
5842;DHT22;2947;52.276;9.946;2023-04-24T00:51:09;11.60;1.00
5842;DHT22;2947;52.276;9.946;2023-04-24T00:53:35;11.60;1.00
5842;DHT22;2947;52.276;9.946;2023-04-24T00:56:01;11.50;1.00
5842;DHT22;2947;52.276;9.946;2023-04-24T00:58:28;11.50;1.00
5842;DHT22;2947;52.276;9.946;2023-04-24T01:00:54;11.40;1.00
5842;DHT22;2947;52.276;9.946;2023-04-24T01:03:28;11.30;1.00
5842;DHT22;2947;52.276;9.946;2023-04-24T01:05:55;11.20;1.00
5842;DHT22;2947;52.276;9.946;2023-04-24T01:08:24;11.20;1.00
5842;DHT22;2947;52.276;9.946;2023-04-24T01:10:52;11.20;1.00
5842;DHT22;2947;52.276;9.946;2023-04-24T01:13:20;11.20;1.00
5842;DHT22;2947;52.276;9.946;2023-04-24T01:15:47;11.20;1.00
5842;DHT22;2947;52.276;9.946;2023-04-24T01:18:13;11.20;1.00
5842;DHT22;2947;52.276;9.946;2023-04-24T01:20:40;11.20;1.00
5842;DHT22;2947;52.276;9.946;2023-04-24T01:23:09;11.20;1.00
5842;DHT22;2947;52.276;9.946;2023-04-24T01:25:35;11.10;1.00
5842;DHT22;2947;52.276;9.946;2023-04-24T01:28:01;11.10;1.00
5842;DHT22;2947;52.276;9.946;2023-04-24T01:30:28;11.00;1.00
5842;DHT22;2947;52.276;9.946;2023-04-24T01:32:53;11.00;1.00
5842;DHT22;2947;52.276;9.946;2023-04-24T01:35:20;10.90;1.00
5842;DHT22;2947;52.276;9.946;2023-04-24T01:37:46;10.90;1.00
5842;DHT22;2947;52.276;9.946;2023-04-24T01:40:11;10.90;1.00
5842;DHT22;2947;52.276;9.946;2023-04-24T01:42:38;10.90;1.00
5842;DHT22;2947;52.276;9.946;2023-04-24T01:45:05;10.90;1.00
5842;DHT22;2947;52.276;9.946;2023-04-24T01:47:31;10.90;1.00
5842;DHT22;2947;52.276;9.946;2023-04-24T01:49:58;10.90;1.00
5842;DHT22;2947;52.276;9.946;2023-04-24T01:52:24;10.90;1.00
5842;DHT22;2947;52.276;9.946;2023-04-24T01:54:50;10.90;1.00
5842;DHT22;2947;52.276;9.946;2023-04-24T01:57:16;10.90;1.00
5842;DHT22;2947;52.276;9.946;2023-04-24T01:59:42;10.90;1.00
5842;DHT22;2947;52.276;9.946;2023-04-24T02:02:08;10.90;1.00
5842;DHT22;2947;52.276;9.946;2023-04-24T02:04:33;10.90;1.00
5842;DHT22;2947;52.276;9.946;2023-04-24T02:06:59;10.90;1.00
5842;DHT22;2947;52.276;9.946;2023-04-24T02:09:25;10.90;1.00
5842;DHT22;2947;52.276;9.946;2023-04-24T02:11:51;10.90;1.00
5842;DHT22;2947;52.276;9.946;2023-04-24T02:14:16;10.90;1.00
5842;DHT22;2947;52.276;9.946;2023-04-24T02:16:42;10.90;1.00
5842;DHT22;2947;52.276;9.946;2023-04-24T02:19:09;10.80;1.00
5842;DHT22;2947;52.276;9.946;2023-04-24T02:21:35;10.80;1.00
5842;DHT22;2947;52.276;9.946;2023-04-24T02:24:01;10.80;1.00
5842;DHT22;2947;52.276;9.946;2023-04-24T02:26:26;10.70;1.00
5842;DHT22;2947;52.276;9.946;2023-04-24T02:28:52;10.70;1.00
5842;DHT22;2947;52.276;9.946;2023-04-24T02:31:18;10.70;1.00
5842;DHT22;2947;52.276;9.946;2023-04-24T02:33:43;10.70;1.00
5842;DHT22;2947;52.276;9.946;2023-04-24T02:36:09;10.70;1.00
5842;DHT22;2947;52.276;9.946;2023-04-24T02:38:35;10.70;1.00
5842;DHT22;2947;52.276;9.946;2023-04-24T02:41:01;10.70;1.00
5842;DHT22;2947;52.276;9.946;2023-04-24T02:43:27;10.60;1.00
5842;DHT22;2947;52.276;9.946;2023-04-24T02:45:53;10.60;1.00
5842;DHT22;2947;52.276;9.946;2023-04-24T02:48:19;10.60;1.00
5842;DHT22;2947;52.276;9.946;2023-04-24T02:50:46;10.50;1.00
5842;DHT22;2947;52.276;9.946;2023-04-24T02:53:12;10.50;1.00
5842;DHT22;2947;52.276;9.946;2023-04-24T02:55:38;10.40;1.00
5842;DHT22;2947;52.276;9.946;2023-04-24T02:58:03;10.40;1.00
5842;DHT22;2947;52.276;9.946;2023-04-24T03:00:29;10.30;1.00
5842;DHT22;2947;52.276;9.946;2023-04-24T03:02:55;10.30;1.00
5842;DHT22;2947;52.276;9.946;2023-04-24T03:05:21;10.20;1.00
5842;DHT22;2947;52.276;9.946;2023-04-24T03:07:46;10.10;1.00
5842;DHT22;2947;52.276;9.946;2023-04-24T03:10:12;10.00;1.00
5842;DHT22;2947;52.276;9.946;2023-04-24T03:12:38;10.00;1.00
5842;DHT22;2947;52.276;9.946;2023-04-24T03:15:04;9.90;1.00
5842;DHT22;2947;52.276;9.946;2023-04-24T03:17:30;10.00;1.00
5842;DHT22;2947;52.276;9.946;2023-04-24T03:19:55;9.90;1.00
5842;DHT22;2947;52.276;9.946;2023-04-24T03:22:21;9.90;1.00
5842;DHT22;2947;52.276;9.946;2023-04-24T03:24:47;9.90;1.00
5842;DHT22;2947;52.276;9.946;2023-04-24T03:27:12;9.80;1.00
5842;DHT22;2947;52.276;9.946;2023-04-24T03:29:38;9.80;1.00
5842;DHT22;2947;52.276;9.946;2023-04-24T03:32:04;9.80;1.00
5842;DHT22;2947;52.276;9.946;2023-04-24T03:34:29;9.80;1.00
5842;DHT22;2947;52.276;9.946;2023-04-24T03:36:55;9.70;1.00
5842;DHT22;2947;52.276;9.946;2023-04-24T03:39:21;9.70;1.00
5842;DHT22;2947;52.276;9.946;2023-04-24T03:41:46;9.70;1.00
5842;DHT22;2947;52.276;9.946;2023-04-24T03:44:12;9.60;1.00
5842;DHT22;2947;52.276;9.946;2023-04-24T03:46:38;9.60;1.00
5842;DHT22;2947;52.276;9.946;2023-04-24T03:49:03;9.60;1.00
5842;DHT22;2947;52.276;9.946;2023-04-24T03:51:29;9.60;1.00
5842;DHT22;2947;52.276;9.946;2023-04-24T03:53:56;9.60;1.00
5842;DHT22;2947;52.276;9.946;2023-04-24T03:56:22;9.60;1.00
5842;DHT22;2947;52.276;9.946;2023-04-24T03:58:48;9.60;1.00
5842;DHT22;2947;52.276;9.946;2023-04-24T04:01:13;9.70;1.00
5842;DHT22;2947;52.276;9.946;2023-04-24T04:03:41;9.70;1.00
5842;DHT22;2947;52.276;9.946;2023-04-24T04:06:07;9.60;1.00
5842;DHT22;2947;52.276;9.946;2023-04-24T04:08:33;9.60;1.00
5842;DHT22;2947;52.276;9.946;2023-04-24T04:10:58;9.70;1.00
5842;DHT22;2947;52.276;9.946;2023-04-24T04:13:24;9.70;1.00
5842;DHT22;2947;52.276;9.946;2023-04-24T04:15:50;9.70;1.00
5842;DHT22;2947;52.276;9.946;2023-04-24T04:18:15;9.70;1.00
5842;DHT22;2947;52.276;9.946;2023-04-24T04:20:41;9.70;1.00
5842;DHT22;2947;52.276;9.946;2023-04-24T04:23:07;9.70;1.00
5842;DHT22;2947;52.276;9.946;2023-04-24T04:25:32;9.70;1.00
5842;DHT22;2947;52.276;9.946;2023-04-24T04:27:58;9.70;1.00
5842;DHT22;2947;52.276;9.946;2023-04-24T04:30:24;9.70;1.00
5842;DHT22;2947;52.276;9.946;2023-04-24T04:32:51;9.70;1.00
5842;DHT22;2947;52.276;9.946;2023-04-24T04:35:17;9.60;1.00
5842;DHT22;2947;52.276;9.946;2023-04-24T04:37:42;9.60;1.00
5842;DHT22;2947;52.276;9.946;2023-04-24T04:40:08;9.50;1.00
5842;DHT22;2947;52.276;9.946;2023-04-24T04:42:37;9.50;1.00
5842;DHT22;2947;52.276;9.946;2023-04-24T04:45:07;9.40;1.00
5842;DHT22;2947;52.276;9.946;2023-04-24T04:47:34;9.40;1.00
5842;DHT22;2947;52.276;9.946;2023-04-24T04:50:00;9.30;1.00
5842;DHT22;2947;52.276;9.946;2023-04-24T04:52:26;9.30;1.00
5842;DHT22;2947;52.276;9.946;2023-04-24T04:54:52;9.30;1.00
5842;DHT22;2947;52.276;9.946;2023-04-24T04:57:18;9.30;1.00
5842;DHT22;2947;52.276;9.946;2023-04-24T04:59:43;9.30;1.00
5842;DHT22;2947;52.276;9.946;2023-04-24T05:02:10;9.40;1.00
5842;DHT22;2947;52.276;9.946;2023-04-24T05:04:35;9.50;1.00
5842;DHT22;2947;52.276;9.946;2023-04-24T05:07:01;9.60;1.00
5842;DHT22;2947;52.276;9.946;2023-04-24T05:09:27;9.70;1.00
5842;DHT22;2947;52.276;9.946;2023-04-24T05:11:54;9.80;1.00
5842;DHT22;2947;52.276;9.946;2023-04-24T05:14:20;9.80;1.00
5842;DHT22;2947;52.276;9.946;2023-04-24T05:16:47;9.90;1.00
5842;DHT22;2947;52.276;9.946;2023-04-24T05:19:12;10.00;1.00
5842;DHT22;2947;52.276;9.946;2023-04-24T05:21:39;10.10;1.00
5842;DHT22;2947;52.276;9.946;2023-04-24T05:24:08;10.20;1.00
5842;DHT22;2947;52.276;9.946;2023-04-24T05:26:34;10.30;1.00
5842;DHT22;2947;52.276;9.946;2023-04-24T05:29:01;10.30;1.00
5842;DHT22;2947;52.276;9.946;2023-04-24T05:31:27;10.40;1.00
5842;DHT22;2947;52.276;9.946;2023-04-24T05:33:53;10.40;1.00
5842;DHT22;2947;52.276;9.946;2023-04-24T05:36:18;10.50;1.00
5842;DHT22;2947;52.276;9.946;2023-04-24T05:38:44;10.60;1.00
5842;DHT22;2947;52.276;9.946;2023-04-24T05:41:10;10.60;1.00
5842;DHT22;2947;52.276;9.946;2023-04-24T05:43:36;10.60;1.00
5842;DHT22;2947;52.276;9.946;2023-04-24T05:46:01;10.60;1.00
5842;DHT22;2947;52.276;9.946;2023-04-24T05:48:27;10.70;1.00
5842;DHT22;2947;52.276;9.946;2023-04-24T05:50:53;10.70;1.00
5842;DHT22;2947;52.276;9.946;2023-04-24T05:53:19;10.80;1.00
5842;DHT22;2947;52.276;9.946;2023-04-24T05:55:45;10.80;1.00
5842;DHT22;2947;52.276;9.946;2023-04-24T05:58:11;10.80;1.00
5842;DHT22;2947;52.276;9.946;2023-04-24T06:00:37;10.90;1.00
5842;DHT22;2947;52.276;9.946;2023-04-24T06:03:05;11.00;1.00
5842;DHT22;2947;52.276;9.946;2023-04-24T06:05:31;11.00;1.00
5842;DHT22;2947;52.276;9.946;2023-04-24T06:07:56;11.10;1.00
5842;DHT22;2947;52.276;9.946;2023-04-24T06:10:22;11.20;1.00
5842;DHT22;2947;52.276;9.946;2023-04-24T06:12:48;11.20;1.00
5842;DHT22;2947;52.276;9.946;2023-04-24T06:15:14;11.30;1.00
5842;DHT22;2947;52.276;9.946;2023-04-24T06:17:39;11.30;1.00
5842;DHT22;2947;52.276;9.946;2023-04-24T06:20:06;11.30;1.00
5842;DHT22;2947;52.276;9.946;2023-04-24T06:22:33;11.40;1.00
5842;DHT22;2947;52.276;9.946;2023-04-24T06:24:59;11.40;1.00
5842;DHT22;2947;52.276;9.946;2023-04-24T06:27:26;11.40;1.00
5842;DHT22;2947;52.276;9.946;2023-04-24T06:29:51;11.40;1.00
5842;DHT22;2947;52.276;9.946;2023-04-24T06:32:22;11.40;1.00
5842;DHT22;2947;52.276;9.946;2023-04-24T06:34:48;11.40;1.00
5842;DHT22;2947;52.276;9.946;2023-04-24T06:37:14;11.40;1.00
5842;DHT22;2947;52.276;9.946;2023-04-24T06:39:40;11.20;1.00
5842;DHT22;2947;52.276;9.946;2023-04-24T06:42:06;11.10;1.00
5842;DHT22;2947;52.276;9.946;2023-04-24T06:44:33;11.10;1.00
5842;DHT22;2947;52.276;9.946;2023-04-24T06:47:03;11.10;1.00
5842;DHT22;2947;52.276;9.946;2023-04-24T06:49:28;11.00;1.00
5842;DHT22;2947;52.276;9.946;2023-04-24T06:51:54;11.00;1.00
5842;DHT22;2947;52.276;9.946;2023-04-24T06:54:20;11.00;1.00
5842;DHT22;2947;52.276;9.946;2023-04-24T06:56:46;11.00;1.00
5842;DHT22;2947;52.276;9.946;2023-04-24T06:59:13;11.00;7.80
5842;DHT22;2947;52.276;9.946;2023-04-24T07:01:38;11.00;27.40
5842;DHT22;2947;52.276;9.946;2023-04-24T07:04:04;11.10;99.90
5842;DHT22;2947;52.276;9.946;2023-04-24T07:06:30;11.10;88.20
5842;DHT22;2947;52.276;9.946;2023-04-24T07:08:55;11.10;84.00
5842;DHT22;2947;52.276;9.946;2023-04-24T07:11:21;11.10;23.20
5842;DHT22;2947;52.276;9.946;2023-04-24T07:13:47;11.20;15.40
5842;DHT22;2947;52.276;9.946;2023-04-24T07:16:13;11.20;1.00
5842;DHT22;2947;52.276;9.946;2023-04-24T07:18:38;11.20;1.00
5842;DHT22;2947;52.276;9.946;2023-04-24T07:21:05;11.20;1.00
5842;DHT22;2947;52.276;9.946;2023-04-24T07:23:31;11.30;1.00
5842;DHT22;2947;52.276;9.946;2023-04-24T07:25:57;11.40;1.00
5842;DHT22;2947;52.276;9.946;2023-04-24T07:28:23;11.40;1.00
5842;DHT22;2947;52.276;9.946;2023-04-24T07:30:48;11.40;99.90
5842;DHT22;2947;52.276;9.946;2023-04-24T07:33:14;11.30;99.90
5842;DHT22;2947;52.276;9.946;2023-04-24T07:35:40;11.40;99.90
5842;DHT22;2947;52.276;9.946;2023-04-24T07:38:05;11.40;1.00
5842;DHT22;2947;52.276;9.946;2023-04-24T07:40:31;11.40;1.00
5842;DHT22;2947;52.276;9.946;2023-04-24T07:42:57;11.40;99.90
5842;DHT22;2947;52.276;9.946;2023-04-24T07:45:22;11.40;1.00
5842;DHT22;2947;52.276;9.946;2023-04-24T07:47:50;11.40;99.90
5842;DHT22;2947;52.276;9.946;2023-04-24T07:50:16;11.50;99.90
5842;DHT22;2947;52.276;9.946;2023-04-24T07:52:41;11.40;1.00
5842;DHT22;2947;52.276;9.946;2023-04-24T07:55:07;11.40;66.90
5842;DHT22;2947;52.276;9.946;2023-04-24T07:57:33;11.60;28.50
5842;DHT22;2947;52.276;9.946;2023-04-24T07:59:59;11.70;91.00
5842;DHT22;2947;52.276;9.946;2023-04-24T08:02:25;11.80;99.90
5842;DHT22;2947;52.276;9.946;2023-04-24T08:04:55;11.70;1.00
5842;DHT22;2947;52.276;9.946;2023-04-24T08:07:21;11.80;1.00
5842;DHT22;2947;52.276;9.946;2023-04-24T08:09:47;12.00;99.90
5842;DHT22;2947;52.276;9.946;2023-04-24T08:12:12;12.20;1.00
5842;DHT22;2947;52.276;9.946;2023-04-24T08:14:38;12.30;93.90
5842;DHT22;2947;52.276;9.946;2023-04-24T08:17:04;12.30;1.00
5842;DHT22;2947;52.276;9.946;2023-04-24T08:19:29;12.40;99.90
5842;DHT22;2947;52.276;9.946;2023-04-24T08:21:55;12.50;95.10
5842;DHT22;2947;52.276;9.946;2023-04-24T08:24:22;12.50;1.00
5842;DHT22;2947;52.276;9.946;2023-04-24T08:26:48;12.60;1.00
5842;DHT22;2947;52.276;9.946;2023-04-24T08:29:19;12.60;99.90
5842;DHT22;2947;52.276;9.946;2023-04-24T08:31:45;12.50;99.90
5842;DHT22;2947;52.276;9.946;2023-04-24T08:34:11;12.50;99.90
5842;DHT22;2947;52.276;9.946;2023-04-24T08:36:37;12.50;99.90
5842;DHT22;2947;52.276;9.946;2023-04-24T08:39:03;12.60;99.90
5842;DHT22;2947;52.276;9.946;2023-04-24T08:41:29;12.80;99.90
5842;DHT22;2947;52.276;9.946;2023-04-24T08:43:56;12.90;1.00
5842;DHT22;2947;52.276;9.946;2023-04-24T08:46:24;13.10;23.90
5842;DHT22;2947;52.276;9.946;2023-04-24T08:48:51;13.20;1.00
5842;DHT22;2947;52.276;9.946;2023-04-24T08:51:17;13.40;1.00
5842;DHT22;2947;52.276;9.946;2023-04-24T08:53:45;13.50;1.00
5842;DHT22;2947;52.276;9.946;2023-04-24T08:56:11;13.50;1.00
5842;DHT22;2947;52.276;9.946;2023-04-24T08:58:38;13.70;1.00
5842;DHT22;2947;52.276;9.946;2023-04-24T09:01:04;13.90;1.00
5842;DHT22;2947;52.276;9.946;2023-04-24T09:03:31;13.80;1.00
5842;DHT22;2947;52.276;9.946;2023-04-24T09:05:58;13.90;1.00
5842;DHT22;2947;52.276;9.946;2023-04-24T09:08:26;13.80;1.00
5842;DHT22;2947;52.276;9.946;2023-04-24T09:10:53;13.80;1.00
5842;DHT22;2947;52.276;9.946;2023-04-24T09:13:22;13.60;1.00
5842;DHT22;2947;52.276;9.946;2023-04-24T09:15:48;13.50;1.00
5842;DHT22;2947;52.276;9.946;2023-04-24T09:18:14;13.40;1.00
5842;DHT22;2947;52.276;9.946;2023-04-24T09:20:59;13.10;1.00
5842;DHT22;2947;52.276;9.946;2023-04-24T09:23:32;13.00;1.00
5842;DHT22;2947;52.276;9.946;2023-04-24T09:25:59;13.00;1.00
5842;DHT22;2947;52.276;9.946;2023-04-24T09:28:30;13.00;1.00
5842;DHT22;2947;52.276;9.946;2023-04-24T09:31:12;13.10;1.00
5842;DHT22;2947;52.276;9.946;2023-04-24T09:33:40;13.10;1.00
5842;DHT22;2947;52.276;9.946;2023-04-24T09:36:05;12.90;99.90
5842;DHT22;2947;52.276;9.946;2023-04-24T09:38:36;13.10;99.90
5842;DHT22;2947;52.276;9.946;2023-04-24T09:41:06;13.10;99.90
5842;DHT22;2947;52.276;9.946;2023-04-24T09:43:33;13.00;99.90
5842;DHT22;2947;52.276;9.946;2023-04-24T09:46:06;12.90;99.90
5842;DHT22;2947;52.276;9.946;2023-04-24T09:48:34;12.80;99.90
5842;DHT22;2947;52.276;9.946;2023-04-24T09:51:02;12.90;99.90
5842;DHT22;2947;52.276;9.946;2023-04-24T09:53:30;13.10;1.00
5842;DHT22;2947;52.276;9.946;2023-04-24T09:56:02;13.40;1.00
5842;DHT22;2947;52.276;9.946;2023-04-24T09:58:32;13.60;99.90
5842;DHT22;2947;52.276;9.946;2023-04-24T10:00:57;13.50;99.90
5842;DHT22;2947;52.276;9.946;2023-04-24T10:03:29;13.30;99.90
5842;DHT22;2947;52.276;9.946;2023-04-24T10:06:01;13.30;99.90
5842;DHT22;2947;52.276;9.946;2023-04-24T10:08:33;13.10;99.90
5842;DHT22;2947;52.276;9.946;2023-04-24T10:11:00;13.20;99.90
5842;DHT22;2947;52.276;9.946;2023-04-24T10:13:27;13.20;99.90
5842;DHT22;2947;52.276;9.946;2023-04-24T10:15:54;13.00;99.90
5842;DHT22;2947;52.276;9.946;2023-04-24T10:18:20;12.90;99.90
5842;DHT22;2947;52.276;9.946;2023-04-24T10:20:47;12.80;99.90
5842;DHT22;2947;52.276;9.946;2023-04-24T10:23:13;12.80;99.90
5842;DHT22;2947;52.276;9.946;2023-04-24T10:25:38;12.80;99.90
5842;DHT22;2947;52.276;9.946;2023-04-24T10:28:05;12.50;99.90
5842;DHT22;2947;52.276;9.946;2023-04-24T10:30:33;12.30;99.90
5842;DHT22;2947;52.276;9.946;2023-04-24T10:33:03;12.40;99.90
5842;DHT22;2947;52.276;9.946;2023-04-24T10:35:38;12.40;99.90
5842;DHT22;2947;52.276;9.946;2023-04-24T10:38:09;12.30;1.00
5842;DHT22;2947;52.276;9.946;2023-04-24T10:40:37;12.30;1.00
5842;DHT22;2947;52.276;9.946;2023-04-24T10:43:07;12.30;1.00
5842;DHT22;2947;52.276;9.946;2023-04-24T10:45:35;12.30;1.00
5842;DHT22;2947;52.276;9.946;2023-04-24T10:48:03;12.40;1.00
5842;DHT22;2947;52.276;9.946;2023-04-24T10:53:16;12.40;1.00
5842;DHT22;2947;52.276;9.946;2023-04-24T10:55:46;12.50;1.00
5842;DHT22;2947;52.276;9.946;2023-04-24T10:58:13;12.60;1.00
5842;DHT22;2947;52.276;9.946;2023-04-24T11:00:41;12.70;1.00
5842;DHT22;2947;52.276;9.946;2023-04-24T11:03:24;12.80;1.00
5842;DHT22;2947;52.276;9.946;2023-04-24T11:06:08;12.80;1.00
5842;DHT22;2947;52.276;9.946;2023-04-24T11:08:44;12.80;1.00
5842;DHT22;2947;52.276;9.946;2023-04-24T11:11:12;12.80;1.00
5842;DHT22;2947;52.276;9.946;2023-04-24T11:16:24;12.60;1.00
5842;DHT22;2947;52.276;9.946;2023-04-24T11:19:05;12.50;1.00
5842;DHT22;2947;52.276;9.946;2023-04-24T11:22:01;12.30;1.00
5842;DHT22;2947;52.276;9.946;2023-04-24T11:27:11;11.90;1.00
5842;DHT22;2947;52.276;9.946;2023-04-24T11:32:25;12.10;19.20
5842;DHT22;2947;52.276;9.946;2023-04-24T11:35:04;12.30;1.00
5842;DHT22;2947;52.276;9.946;2023-04-24T11:37:34;12.50;1.00
5842;DHT22;2947;52.276;9.946;2023-04-24T11:40:09;12.70;49.70
5842;DHT22;2947;52.276;9.946;2023-04-24T11:42:40;12.80;1.00
5842;DHT22;2947;52.276;9.946;2023-04-24T11:45:14;12.70;1.00
5842;DHT22;2947;52.276;9.946;2023-04-24T11:47:42;12.60;1.00
5842;DHT22;2947;52.276;9.946;2023-04-24T11:50:20;12.60;1.00
5842;DHT22;2947;52.276;9.946;2023-04-24T11:52:48;12.70;1.00
5842;DHT22;2947;52.276;9.946;2023-04-24T11:57:43;12.70;1.00
5842;DHT22;2947;52.276;9.946;2023-04-24T12:02:46;12.70;1.00
5842;DHT22;2947;52.276;9.946;2023-04-24T12:05:26;12.80;1.00
5842;DHT22;2947;52.276;9.946;2023-04-24T12:07:53;12.80;1.00
5842;DHT22;2947;52.276;9.946;2023-04-24T12:10:27;12.80;1.00
5842;DHT22;2947;52.276;9.946;2023-04-24T12:12:55;12.90;1.00
5842;DHT22;2947;52.276;9.946;2023-04-24T12:15:22;13.30;1.00
5842;DHT22;2947;52.276;9.946;2023-04-24T12:17:50;13.30;1.00
5842;DHT22;2947;52.276;9.946;2023-04-24T12:20:17;13.30;1.00
5842;DHT22;2947;52.276;9.946;2023-04-24T12:22:59;13.30;1.00
5842;DHT22;2947;52.276;9.946;2023-04-24T12:25:27;13.20;1.00
5842;DHT22;2947;52.276;9.946;2023-04-24T12:28:16;13.00;1.00
5842;DHT22;2947;52.276;9.946;2023-04-24T12:30:44;12.70;1.00
5842;DHT22;2947;52.276;9.946;2023-04-24T12:33:17;12.70;1.00
5842;DHT22;2947;52.276;9.946;2023-04-24T12:35:44;12.10;99.90
5842;DHT22;2947;52.276;9.946;2023-04-24T12:38:12;11.60;1.00
5842;DHT22;2947;52.276;9.946;2023-04-24T12:40:43;11.40;99.90
5842;DHT22;2947;52.276;9.946;2023-04-24T12:43:19;11.20;99.90
5842;DHT22;2947;52.276;9.946;2023-04-24T12:45:47;11.20;99.90
5842;DHT22;2947;52.276;9.946;2023-04-24T12:48:12;11.20;1.00
5842;DHT22;2947;52.276;9.946;2023-04-24T12:50:39;11.30;99.90
5842;DHT22;2947;52.276;9.946;2023-04-24T12:53:06;11.50;99.90
5842;DHT22;2947;52.276;9.946;2023-04-24T12:55:33;11.60;99.90
5842;DHT22;2947;52.276;9.946;2023-04-24T12:57:59;11.60;99.90
5842;DHT22;2947;52.276;9.946;2023-04-24T13:00:25;11.70;54.80
5842;DHT22;2947;52.276;9.946;2023-04-24T13:02:50;11.70;1.00
5842;DHT22;2947;52.276;9.946;2023-04-24T13:05:16;11.70;99.90
5842;DHT22;2947;52.276;9.946;2023-04-24T13:07:42;11.70;1.00
5842;DHT22;2947;52.276;9.946;2023-04-24T13:10:08;11.80;99.90
5842;DHT22;2947;52.276;9.946;2023-04-24T13:12:34;11.70;1.00
5842;DHT22;2947;52.276;9.946;2023-04-24T13:15:00;11.70;99.90
5842;DHT22;2947;52.276;9.946;2023-04-24T13:17:26;11.70;99.90
5842;DHT22;2947;52.276;9.946;2023-04-24T13:19:54;11.70;81.60
5842;DHT22;2947;52.276;9.946;2023-04-24T13:22:20;11.70;1.00
5842;DHT22;2947;52.276;9.946;2023-04-24T13:24:46;11.70;1.00
5842;DHT22;2947;52.276;9.946;2023-04-24T13:27:14;11.50;99.90
5842;DHT22;2947;52.276;9.946;2023-04-24T13:29:41;11.30;1.00
5842;DHT22;2947;52.276;9.946;2023-04-24T13:32:07;11.30;1.00
5842;DHT22;2947;52.276;9.946;2023-04-24T13:34:33;11.10;1.00
5842;DHT22;2947;52.276;9.946;2023-04-24T13:37:00;11.20;1.00
5842;DHT22;2947;52.276;9.946;2023-04-24T13:39:26;11.10;1.00
5842;DHT22;2947;52.276;9.946;2023-04-24T13:41:52;11.10;1.00
5842;DHT22;2947;52.276;9.946;2023-04-24T13:44:19;11.10;1.00
5842;DHT22;2947;52.276;9.946;2023-04-24T13:46:47;11.00;1.00
5842;DHT22;2947;52.276;9.946;2023-04-24T13:49:14;11.00;1.00
5842;DHT22;2947;52.276;9.946;2023-04-24T13:51:41;11.10;51.50
5842;DHT22;2947;52.276;9.946;2023-04-24T13:54:07;11.20;99.90
5842;DHT22;2947;52.276;9.946;2023-04-24T13:56:33;11.40;99.90
5842;DHT22;2947;52.276;9.946;2023-04-24T13:58:59;11.40;1.00
5842;DHT22;2947;52.276;9.946;2023-04-24T14:01:25;11.30;1.00
5842;DHT22;2947;52.276;9.946;2023-04-24T14:03:52;11.20;1.00
5842;DHT22;2947;52.276;9.946;2023-04-24T14:06:21;11.20;1.00
5842;DHT22;2947;52.276;9.946;2023-04-24T14:08:48;11.00;1.00
5842;DHT22;2947;52.276;9.946;2023-04-24T14:11:15;11.00;99.90
5842;DHT22;2947;52.276;9.946;2023-04-24T14:13:42;10.90;92.60
5842;DHT22;2947;52.276;9.946;2023-04-24T14:16:07;10.70;1.00
5842;DHT22;2947;52.276;9.946;2023-04-24T14:18:33;10.60;1.00
5842;DHT22;2947;52.276;9.946;2023-04-24T14:20:59;10.60;99.90
5842;DHT22;2947;52.276;9.946;2023-04-24T14:23:26;10.50;1.00
5842;DHT22;2947;52.276;9.946;2023-04-24T14:25:52;10.50;1.00
5842;DHT22;2947;52.276;9.946;2023-04-24T14:28:19;10.50;99.90
5842;DHT22;2947;52.276;9.946;2023-04-24T14:30:46;10.50;99.90
5842;DHT22;2947;52.276;9.946;2023-04-24T14:33:14;10.50;99.90
5842;DHT22;2947;52.276;9.946;2023-04-24T14:35:41;10.60;1.00
5842;DHT22;2947;52.276;9.946;2023-04-24T14:38:10;10.50;1.00
5842;DHT22;2947;52.276;9.946;2023-04-24T14:40:37;10.50;99.90
5842;DHT22;2947;52.276;9.946;2023-04-24T14:43:03;10.50;99.90
5842;DHT22;2947;52.276;9.946;2023-04-24T14:45:29;10.50;99.90
5842;DHT22;2947;52.276;9.946;2023-04-24T14:47:55;10.40;1.00
5842;DHT22;2947;52.276;9.946;2023-04-24T14:50:21;10.20;99.90
5842;DHT22;2947;52.276;9.946;2023-04-24T14:52:47;10.20;1.00
5842;DHT22;2947;52.276;9.946;2023-04-24T14:55:13;10.00;99.90
5842;DHT22;2947;52.276;9.946;2023-04-24T14:57:38;9.90;99.90
5842;DHT22;2947;52.276;9.946;2023-04-24T15:00:06;10.00;99.90
5842;DHT22;2947;52.276;9.946;2023-04-24T15:02:34;9.90;99.90
5842;DHT22;2947;52.276;9.946;2023-04-24T15:04:59;9.90;1.00
5842;DHT22;2947;52.276;9.946;2023-04-24T15:07:26;9.80;1.00
5842;DHT22;2947;52.276;9.946;2023-04-24T15:09:52;9.90;1.00
5842;DHT22;2947;52.276;9.946;2023-04-24T15:12:17;10.00;1.00
5842;DHT22;2947;52.276;9.946;2023-04-24T15:14:43;10.00;1.00
5842;DHT22;2947;52.276;9.946;2023-04-24T15:17:09;10.40;1.00
5842;DHT22;2947;52.276;9.946;2023-04-24T15:19:34;10.10;8.00
5842;DHT22;2947;52.276;9.946;2023-04-24T15:22:00;10.20;99.90
5842;DHT22;2947;52.276;9.946;2023-04-24T15:24:26;10.30;1.00
5842;DHT22;2947;52.276;9.946;2023-04-24T15:26:52;10.30;1.00
5842;DHT22;2947;52.276;9.946;2023-04-24T15:29:18;10.20;88.20
5842;DHT22;2947;52.276;9.946;2023-04-24T15:31:44;10.20;99.90
5842;DHT22;2947;52.276;9.946;2023-04-24T15:34:09;10.10;99.90
5842;DHT22;2947;52.276;9.946;2023-04-24T15:36:35;10.10;1.00
5842;DHT22;2947;52.276;9.946;2023-04-24T15:39:02;10.10;1.00
5842;DHT22;2947;52.276;9.946;2023-04-24T15:41:28;10.10;1.00
5842;DHT22;2947;52.276;9.946;2023-04-24T15:43:53;10.10;1.00
5842;DHT22;2947;52.276;9.946;2023-04-24T15:46:19;10.20;1.00
5842;DHT22;2947;52.276;9.946;2023-04-24T15:48:45;10.20;1.00
5842;DHT22;2947;52.276;9.946;2023-04-24T15:51:11;10.20;99.90
5842;DHT22;2947;52.276;9.946;2023-04-24T15:53:36;10.30;12.10
5842;DHT22;2947;52.276;9.946;2023-04-24T15:56:02;10.30;1.00
5842;DHT22;2947;52.276;9.946;2023-04-24T15:58:28;10.20;1.00
5842;DHT22;2947;52.276;9.946;2023-04-24T16:00:54;10.20;1.00
5842;DHT22;2947;52.276;9.946;2023-04-24T16:03:20;10.10;1.00
5842;DHT22;2947;52.276;9.946;2023-04-24T16:05:46;10.20;99.90
5842;DHT22;2947;52.276;9.946;2023-04-24T16:08:12;10.20;99.90
5842;DHT22;2947;52.276;9.946;2023-04-24T16:10:39;10.20;99.90
5842;DHT22;2947;52.276;9.946;2023-04-24T16:13:05;10.20;1.00
5842;DHT22;2947;52.276;9.946;2023-04-24T16:15:31;10.20;1.00
5842;DHT22;2947;52.276;9.946;2023-04-24T16:17:58;10.30;1.00
5842;DHT22;2947;52.276;9.946;2023-04-24T16:20:23;10.30;99.90
5842;DHT22;2947;52.276;9.946;2023-04-24T16:22:49;10.30;1.00
5842;DHT22;2947;52.276;9.946;2023-04-24T16:25:15;10.30;1.00
5842;DHT22;2947;52.276;9.946;2023-04-24T16:27:41;10.20;1.00
5842;DHT22;2947;52.276;9.946;2023-04-24T16:30:07;10.20;1.00
5842;DHT22;2947;52.276;9.946;2023-04-24T16:32:34;10.30;1.00